ANZ104 YSSY-NZAA
Flight info
| Callsign | ANZ104 |
|---|---|
| Flight time | 2h 30m |
| Altitude | 39000 |
| Route | EVONN L521 LUNBI |
| Aircraft | B77W/H-SDE1E2E3FGHIJ2J3J4J5M1RWXY/LB1D1 |
Departure
| Time | 2026-05-04 14:40 |
|---|---|
| Airport | Sydney Kingsford Smith International Airport (YSSY) |
Arrival
| Time | 2026-05-04 17:10 |
|---|---|
| Airport | Auckland International Airport (NZAA) |
| Time | Latitude | Longitude | Altitude | Speed | Heading |
|---|---|---|---|---|---|
| 2026-05-04 14:21 | -33.93979 | 151.16684 | 35 ft | 0 kts | 304° |
| 2026-05-04 14:29 | -33.93997 | 151.16719 | 35 ft | 4 kts | 297° |
| 2026-05-04 14:30 | -33.94009 | 151.16749 | 33 ft | 4 kts | 289° |
| 2026-05-04 14:30 | -33.94015 | 151.16779 | 34 ft | 4 kts | 265° |
| 2026-05-04 14:30 | -33.94003 | 151.16798 | 33 ft | 0 kts | 164° |
| 2026-05-04 14:33 | -33.94012 | 151.16801 | 31 ft | 6 kts | 164° |
| 2026-05-04 14:33 | -33.94047 | 151.16899 | 35 ft | 25 kts | 76° |
| 2026-05-04 14:33 | -33.94004 | 151.17085 | 34 ft | 17 kts | 73° |
| 2026-05-04 14:33 | -33.93991 | 151.17140 | 34 ft | 0 kts | 73° |
| 2026-05-04 14:34 | -33.93989 | 151.17149 | 34 ft | 3 kts | 73° |
| 2026-05-04 14:34 | -33.94000 | 151.17215 | 34 ft | 14 kts | 132° |
| 2026-05-04 14:34 | -33.94117 | 151.17263 | 33 ft | 20 kts | 167° |
| 2026-05-04 14:34 | -33.94251 | 151.17297 | 34 ft | 20 kts | 168° |
| 2026-05-04 14:35 | -33.94386 | 151.17332 | 35 ft | 20 kts | 168° |
| 2026-05-04 14:35 | -33.94518 | 151.17366 | 35 ft | 20 kts | 168° |
| 2026-05-04 14:35 | -33.94642 | 151.17398 | 35 ft | 20 kts | 168° |
| 2026-05-04 14:35 | -33.94777 | 151.17433 | 35 ft | 20 kts | 168° |
| 2026-05-04 14:36 | -33.94912 | 151.17468 | 34 ft | 20 kts | 168° |
| 2026-05-04 14:36 | -33.95046 | 151.17503 | 34 ft | 20 kts | 168° |
| 2026-05-04 14:36 | -33.95170 | 151.17536 | 34 ft | 20 kts | 168° |
| 2026-05-04 14:36 | -33.95305 | 151.17570 | 34 ft | 20 kts | 168° |
| 2026-05-04 14:37 | -33.95440 | 151.17606 | 34 ft | 20 kts | 167° |
| 2026-05-04 14:37 | -33.95560 | 151.17636 | 35 ft | 20 kts | 168° |
| 2026-05-04 14:37 | -33.95684 | 151.17668 | 35 ft | 20 kts | 168° |
| 2026-05-04 14:37 | -33.95817 | 151.17703 | 35 ft | 20 kts | 168° |
| 2026-05-04 14:38 | -33.95951 | 151.17738 | 35 ft | 20 kts | 168° |
| 2026-05-04 14:38 | -33.96086 | 151.17773 | 35 ft | 20 kts | 168° |
| 2026-05-04 14:38 | -33.96219 | 151.17807 | 35 ft | 20 kts | 167° |
| 2026-05-04 14:38 | -33.96347 | 151.17841 | 35 ft | 14 kts | 168° |
| 2026-05-04 14:39 | -33.96417 | 151.17875 | 35 ft | 10 kts | 135° |
| 2026-05-04 14:39 | -33.96431 | 151.17953 | 35 ft | 10 kts | 83° |
| 2026-05-04 14:39 | -33.96408 | 151.18033 | 35 ft | 11 kts | 44° |
| 2026-05-04 14:40 | -33.96185 | 151.18003 | 32 ft | 53 kts | 348° |
| 2026-05-04 14:40 | -33.95542 | 151.17835 | 34 ft | 134 kts | 348° |
| 2026-05-04 14:40 | -33.94413 | 151.17539 | 52 ft | 193 kts | 348° |
| 2026-05-04 14:40 | -33.93060 | 151.17214 | 675 ft | 200 kts | 347° |
| 2026-05-04 14:41 | -33.91732 | 151.16917 | 1728 ft | 189 kts | 344° |
| 2026-05-04 14:41 | -33.90387 | 151.16642 | 2298 ft | 214 kts | 358° |
| 2026-05-04 14:41 | -33.87979 | 151.19209 | 3533 ft | 270 kts | 76° |
| 2026-05-04 14:42 | -33.88784 | 151.23664 | 5345 ft | 287 kts | 115° |
| 2026-05-04 14:42 | -33.89673 | 151.25859 | 6258 ft | 297 kts | 116° |
| 2026-05-04 14:42 | -33.90619 | 151.28116 | 7202 ft | 304 kts | 116° |
| 2026-05-04 14:43 | -33.91566 | 151.30399 | 8284 ft | 306 kts | 115° |
| 2026-05-04 14:43 | -33.92495 | 151.32680 | 9310 ft | 310 kts | 114° |
| 2026-05-04 14:43 | -33.93442 | 151.35042 | 10252 ft | 317 kts | 112° |
| 2026-05-04 14:43 | -33.94411 | 151.37499 | 10821 ft | 338 kts | 112° |
| 2026-05-04 14:44 | -33.95460 | 151.40192 | 11065 ft | 370 kts | 112° |
| 2026-05-04 14:44 | -33.96592 | 151.43116 | 11346 ft | 399 kts | 112° |
| 2026-05-04 14:44 | -33.97784 | 151.46198 | 12100 ft | 412 kts | 112° |
| 2026-05-04 14:44 | -33.99006 | 151.49363 | 12978 ft | 421 kts | 112° |
| 2026-05-04 14:45 | -34.00252 | 151.52597 | 13948 ft | 428 kts | 112° |
| 2026-05-04 14:45 | -34.01514 | 151.55880 | 14830 ft | 434 kts | 112° |
| 2026-05-04 14:45 | -34.02790 | 151.59206 | 15771 ft | 439 kts | 112° |
| 2026-05-04 14:45 | -34.04080 | 151.62574 | 16710 ft | 444 kts | 112° |
| 2026-05-04 14:46 | -34.05369 | 151.65942 | 17558 ft | 451 kts | 112° |
| 2026-05-04 14:46 | -34.06689 | 151.69398 | 18378 ft | 458 kts | 112° |
| 2026-05-04 14:46 | -34.08031 | 151.72915 | 19133 ft | 463 kts | 112° |
| 2026-05-04 14:46 | -34.09381 | 151.76454 | 19928 ft | 468 kts | 112° |
| 2026-05-04 14:47 | -34.10747 | 151.80038 | 20719 ft | 472 kts | 112° |
| 2026-05-04 14:47 | -34.12127 | 151.83661 | 21471 ft | 477 kts | 112° |
| 2026-05-04 14:47 | -34.13515 | 151.87312 | 22201 ft | 483 kts | 112° |
| 2026-05-04 14:47 | -34.14923 | 151.91019 | 22926 ft | 488 kts | 112° |
| 2026-05-04 14:48 | -34.16343 | 151.94761 | 23632 ft | 493 kts | 112° |
| 2026-05-04 14:48 | -34.17774 | 151.98537 | 24315 ft | 495 kts | 112° |
| 2026-05-04 14:48 | -34.19209 | 152.02340 | 24928 ft | 499 kts | 111° |
| 2026-05-04 14:48 | -34.20498 | 152.06252 | 25482 ft | 503 kts | 107° |
| 2026-05-04 14:49 | -34.21671 | 152.10253 | 26002 ft | 508 kts | 107° |
| 2026-05-04 14:49 | -34.22832 | 152.14308 | 26542 ft | 513 kts | 106° |
| 2026-05-04 14:49 | -34.23996 | 152.18401 | 27070 ft | 517 kts | 107° |
| 2026-05-04 14:49 | -34.25174 | 152.22531 | 27605 ft | 522 kts | 107° |
| 2026-05-04 14:50 | -34.26352 | 152.26640 | 28110 ft | 526 kts | 107° |
| 2026-05-04 14:50 | -34.27563 | 152.30844 | 28599 ft | 531 kts | 107° |
| 2026-05-04 14:50 | -34.28786 | 152.35081 | 29063 ft | 535 kts | 107° |
| 2026-05-04 14:50 | -34.30015 | 152.39332 | 29505 ft | 539 kts | 107° |
| 2026-05-04 14:51 | -34.31258 | 152.43636 | 29926 ft | 542 kts | 107° |
| 2026-05-04 14:51 | -34.32500 | 152.47941 | 30374 ft | 543 kts | 107° |
| 2026-05-04 14:51 | -34.33744 | 152.52262 | 30865 ft | 543 kts | 107° |
| 2026-05-04 14:51 | -34.34986 | 152.56583 | 31361 ft | 541 kts | 107° |
| 2026-05-04 14:52 | -34.36216 | 152.60873 | 31908 ft | 540 kts | 107° |
| 2026-05-04 14:52 | -34.37447 | 152.65172 | 32372 ft | 540 kts | 107° |
| 2026-05-04 14:52 | -34.38674 | 152.69470 | 32770 ft | 541 kts | 108° |
| 2026-05-04 14:52 | -34.39906 | 152.73790 | 33209 ft | 542 kts | 108° |
| 2026-05-04 14:53 | -34.41121 | 152.78054 | 33656 ft | 542 kts | 108° |
| 2026-05-04 14:53 | -34.42348 | 152.82369 | 34082 ft | 542 kts | 108° |
| 2026-05-04 14:53 | -34.43566 | 152.86657 | 34696 ft | 534 kts | 108° |
| 2026-05-04 14:53 | -34.44775 | 152.90919 | 35100 ft | 535 kts | 108° |
| 2026-05-04 14:54 | -34.45987 | 152.95202 | 35275 ft | 539 kts | 108° |
| 2026-05-04 14:54 | -34.47206 | 152.99514 | 35502 ft | 542 kts | 108° |
| 2026-05-04 14:54 | -34.48427 | 153.03842 | 35841 ft | 542 kts | 108° |
| 2026-05-04 14:54 | -34.49649 | 153.08177 | 36195 ft | 542 kts | 108° |
| 2026-05-04 14:55 | -34.50866 | 153.12502 | 36524 ft | 543 kts | 108° |
| 2026-05-04 14:55 | -34.52083 | 153.16833 | 36811 ft | 544 kts | 108° |
| 2026-05-04 14:55 | -34.53305 | 153.21191 | 37083 ft | 545 kts | 108° |
| 2026-05-04 14:55 | -34.54509 | 153.25488 | 37346 ft | 546 kts | 108° |
| 2026-05-04 14:56 | -34.55732 | 153.29861 | 37625 ft | 548 kts | 108° |
| 2026-05-04 14:56 | -34.56956 | 153.34245 | 37894 ft | 549 kts | 108° |
| 2026-05-04 14:56 | -34.58181 | 153.38640 | 38137 ft | 550 kts | 108° |
| 2026-05-04 14:56 | -34.59406 | 153.43041 | 38394 ft | 551 kts | 108° |
| 2026-05-04 14:57 | -34.60631 | 153.47449 | 38695 ft | 550 kts | 109° |
| 2026-05-04 14:57 | -34.61852 | 153.51849 | 38951 ft | 550 kts | 109° |
| 2026-05-04 14:57 | -34.63887 | 153.59201 | 39020 ft | 553 kts | 109° |
| 2026-05-04 14:58 | -34.66735 | 153.69520 | 39025 ft | 547 kts | 109° |
| 2026-05-04 14:58 | -34.68737 | 153.76801 | 39027 ft | 545 kts | 109° |
| 2026-05-04 14:59 | -34.71130 | 153.85523 | 39037 ft | 543 kts | 109° |
| 2026-05-04 15:00 | -34.74704 | 153.98605 | 39046 ft | 544 kts | 109° |
| 2026-05-04 15:00 | -34.77089 | 154.07368 | 39063 ft | 546 kts | 109° |
| 2026-05-04 15:01 | -34.80651 | 154.20511 | 39060 ft | 550 kts | 109° |
| 2026-05-04 15:01 | -34.83042 | 154.29369 | 39062 ft | 552 kts | 109° |
| 2026-05-04 15:02 | -34.85437 | 154.38272 | 39067 ft | 554 kts | 109° |
| 2026-05-04 15:02 | -34.87836 | 154.47220 | 39063 ft | 556 kts | 109° |
| 2026-05-04 15:03 | -34.90233 | 154.56188 | 39060 ft | 557 kts | 109° |
| 2026-05-04 15:03 | -34.92626 | 154.65169 | 39059 ft | 557 kts | 109° |
| 2026-05-04 15:04 | -34.95013 | 154.74161 | 39064 ft | 557 kts | 109° |
| 2026-05-04 15:04 | -34.97388 | 154.83139 | 39058 ft | 556 kts | 109° |
| 2026-05-04 15:05 | -34.99742 | 154.92069 | 39064 ft | 555 kts | 109° |
| 2026-05-04 15:05 | -35.02093 | 155.01008 | 39072 ft | 554 kts | 108° |
| 2026-05-04 15:06 | -35.04436 | 155.09951 | 39075 ft | 552 kts | 108° |
| 2026-05-04 15:07 | -35.07924 | 155.23316 | 39086 ft | 550 kts | 109° |
| 2026-05-04 15:07 | -35.10234 | 155.32205 | 39074 ft | 549 kts | 108° |
| 2026-05-04 15:08 | -35.12540 | 155.41107 | 39079 ft | 548 kts | 108° |
| 2026-05-04 15:08 | -35.14813 | 155.49916 | 39082 ft | 547 kts | 108° |
| 2026-05-04 15:09 | -35.17097 | 155.58797 | 39085 ft | 547 kts | 108° |
| 2026-05-04 15:09 | -35.19371 | 155.67665 | 39090 ft | 546 kts | 108° |
| 2026-05-04 15:10 | -35.22763 | 155.80952 | 39085 ft | 545 kts | 108° |
| 2026-05-04 15:11 | -35.26138 | 155.94242 | 39069 ft | 544 kts | 108° |
| 2026-05-04 15:11 | -35.28360 | 156.03029 | 39079 ft | 543 kts | 108° |
| 2026-05-04 15:12 | -35.30584 | 156.11857 | 39090 ft | 542 kts | 108° |
| 2026-05-04 15:12 | -35.32802 | 156.20688 | 39094 ft | 541 kts | 108° |
| 2026-05-04 15:13 | -35.35003 | 156.29482 | 39097 ft | 540 kts | 108° |
| 2026-05-04 15:13 | -35.37196 | 156.38274 | 39101 ft | 538 kts | 108° |
| 2026-05-04 15:14 | -35.39363 | 156.46992 | 39098 ft | 537 kts | 108° |
| 2026-05-04 15:14 | -35.41533 | 156.55750 | 39106 ft | 536 kts | 107° |
| 2026-05-04 15:15 | -35.43694 | 156.64506 | 39108 ft | 535 kts | 107° |
| 2026-05-04 15:15 | -35.45841 | 156.73231 | 39112 ft | 534 kts | 107° |
| 2026-05-04 15:16 | -35.49050 | 156.86336 | 39117 ft | 534 kts | 107° |
| 2026-05-04 15:17 | -35.52235 | 156.99404 | 39124 ft | 534 kts | 107° |
| 2026-05-04 15:17 | -35.55409 | 157.12499 | 39125 ft | 534 kts | 107° |
| 2026-05-04 15:18 | -35.57521 | 157.21249 | 39131 ft | 534 kts | 107° |
| 2026-05-04 15:19 | -35.60657 | 157.34303 | 39143 ft | 533 kts | 107° |
| 2026-05-04 15:19 | -35.63795 | 157.47431 | 39138 ft | 533 kts | 107° |
| 2026-05-04 15:20 | -35.65877 | 157.56183 | 39132 ft | 533 kts | 107° |
| 2026-05-04 15:20 | -35.67953 | 157.64937 | 39143 ft | 532 kts | 107° |
| 2026-05-04 15:21 | -35.70016 | 157.73672 | 39141 ft | 531 kts | 107° |
| 2026-05-04 15:22 | -35.73084 | 157.86715 | 39141 ft | 531 kts | 107° |
| 2026-05-04 15:22 | -35.76144 | 157.99796 | 39145 ft | 529 kts | 107° |
| 2026-05-04 15:23 | -35.78155 | 158.08503 | 39153 ft | 528 kts | 105° |
| 2026-05-04 15:23 | -35.79761 | 158.17326 | 39169 ft | 527 kts | 102° |
| 2026-05-04 15:24 | -35.82707 | 158.34986 | 39156 ft | 526 kts | 102° |
| 2026-05-04 15:25 | -35.84201 | 158.43813 | 39169 ft | 526 kts | 102° |
| 2026-05-04 15:26 | -35.86449 | 158.57073 | 39169 ft | 526 kts | 102° |
| 2026-05-04 15:26 | -35.88681 | 158.70335 | 39163 ft | 527 kts | 102° |
| 2026-05-04 15:27 | -35.90899 | 158.83629 | 39162 ft | 527 kts | 102° |
| 2026-05-04 15:28 | -35.93101 | 158.96924 | 39163 ft | 527 kts | 102° |
| 2026-05-04 15:29 | -35.95274 | 159.10134 | 39178 ft | 525 kts | 102° |
| 2026-05-04 15:30 | -36.00276 | 159.40915 | 39181 ft | 519 kts | 102° |
| 2026-05-04 15:31 | -36.02379 | 159.54012 | 39188 ft | 517 kts | 102° |
| 2026-05-04 15:32 | -36.05833 | 159.75737 | 39205 ft | 514 kts | 102° |
| 2026-05-04 15:34 | -36.09227 | 159.97349 | 39216 ft | 513 kts | 102° |
| 2026-05-04 15:34 | -36.11248 | 160.10343 | 39218 ft | 513 kts | 102° |
| 2026-05-04 15:35 | -36.13257 | 160.23363 | 39229 ft | 513 kts | 101° |
| 2026-05-04 15:36 | -36.15253 | 160.36394 | 39227 ft | 513 kts | 101° |
| 2026-05-04 15:36 | -36.16564 | 160.45005 | 39222 ft | 513 kts | 101° |
| 2026-05-04 15:37 | -36.17878 | 160.53681 | 39233 ft | 512 kts | 101° |
| 2026-05-04 15:37 | -36.19185 | 160.62353 | 39230 ft | 512 kts | 101° |
| 2026-05-04 15:38 | -36.20484 | 160.71019 | 39227 ft | 512 kts | 101° |
| 2026-05-04 15:38 | -36.21777 | 160.79690 | 39241 ft | 512 kts | 101° |
| 2026-05-04 15:39 | -36.23062 | 160.88354 | 39250 ft | 512 kts | 101° |
| 2026-05-04 15:40 | -36.24972 | 161.01312 | 39247 ft | 511 kts | 101° |
| 2026-05-04 15:40 | -36.26244 | 161.09993 | 39244 ft | 511 kts | 101° |
| 2026-05-04 15:41 | -36.27508 | 161.18672 | 39249 ft | 511 kts | 101° |
| 2026-05-04 15:41 | -36.28765 | 161.27349 | 39248 ft | 511 kts | 101° |
| 2026-05-04 15:42 | -36.30015 | 161.36019 | 39247 ft | 511 kts | 101° |
| 2026-05-04 15:42 | -36.31259 | 161.44693 | 39257 ft | 511 kts | 101° |
| 2026-05-04 15:43 | -36.32495 | 161.53365 | 39256 ft | 510 kts | 101° |
| 2026-05-04 15:43 | -36.33724 | 161.62029 | 39276 ft | 510 kts | 101° |
| 2026-05-04 15:44 | -36.34947 | 161.70696 | 39264 ft | 510 kts | 101° |
| 2026-05-04 15:44 | -36.36161 | 161.79352 | 39266 ft | 509 kts | 101° |
| 2026-05-04 15:45 | -36.37363 | 161.87962 | 39265 ft | 509 kts | 101° |
| 2026-05-04 15:45 | -36.38563 | 161.96611 | 39265 ft | 509 kts | 101° |
| 2026-05-04 15:46 | -36.39757 | 162.05265 | 39279 ft | 509 kts | 101° |
| 2026-05-04 15:46 | -36.40947 | 162.13936 | 39275 ft | 509 kts | 101° |
| 2026-05-04 15:47 | -36.41932 | 162.21147 | 39284 ft | 509 kts | 101° |
| 2026-05-04 15:47 | -36.43113 | 162.29840 | 39287 ft | 510 kts | 101° |
| 2026-05-04 15:48 | -36.44287 | 162.38534 | 39283 ft | 510 kts | 101° |
| 2026-05-04 15:48 | -36.46035 | 162.51565 | 39289 ft | 510 kts | 101° |
| 2026-05-04 15:49 | -36.47184 | 162.60195 | 39287 ft | 510 kts | 101° |
| 2026-05-04 15:49 | -36.48335 | 162.68883 | 39293 ft | 509 kts | 101° |
| 2026-05-04 15:50 | -36.49480 | 162.77584 | 39296 ft | 509 kts | 101° |
| 2026-05-04 15:50 | -36.50616 | 162.86262 | 39300 ft | 509 kts | 100° |
| 2026-05-04 15:51 | -36.51746 | 162.94946 | 39299 ft | 509 kts | 100° |
| 2026-05-04 15:51 | -36.52871 | 163.03643 | 39312 ft | 509 kts | 100° |
| 2026-05-04 15:52 | -36.53985 | 163.12334 | 39308 ft | 508 kts | 100° |
| 2026-05-04 15:52 | -36.55090 | 163.21007 | 39309 ft | 508 kts | 100° |
| 2026-05-04 15:53 | -36.56189 | 163.29679 | 39312 ft | 507 kts | 100° |
| 2026-05-04 15:53 | -36.57273 | 163.38292 | 39321 ft | 507 kts | 100° |
| 2026-05-04 15:54 | -36.58359 | 163.46961 | 39319 ft | 506 kts | 100° |
| 2026-05-04 15:54 | -36.59435 | 163.55610 | 39319 ft | 506 kts | 100° |
| 2026-05-04 15:55 | -36.60508 | 163.64277 | 39319 ft | 506 kts | 100° |
| 2026-05-04 15:55 | -36.61566 | 163.72886 | 39329 ft | 506 kts | 100° |
| 2026-05-04 15:56 | -36.62623 | 163.81537 | 39330 ft | 506 kts | 100° |
| 2026-05-04 15:56 | -36.63677 | 163.90216 | 39329 ft | 506 kts | 100° |
| 2026-05-04 15:57 | -36.64723 | 163.98890 | 39336 ft | 507 kts | 100° |
| 2026-05-04 15:57 | -36.65766 | 164.07583 | 39339 ft | 507 kts | 100° |
| 2026-05-04 15:58 | -36.66804 | 164.16295 | 39337 ft | 508 kts | 100° |
| 2026-05-04 15:58 | -36.67828 | 164.24950 | 39346 ft | 509 kts | 100° |
| 2026-05-04 15:59 | -36.68855 | 164.33675 | 39346 ft | 509 kts | 100° |
| 2026-05-04 15:59 | -36.69878 | 164.42429 | 39350 ft | 509 kts | 100° |
| 2026-05-04 16:00 | -36.70892 | 164.51164 | 39348 ft | 509 kts | 100° |
| 2026-05-04 16:00 | -36.71902 | 164.59917 | 39351 ft | 509 kts | 100° |
| 2026-05-04 16:01 | -36.72898 | 164.68610 | 39349 ft | 509 kts | 100° |
| 2026-05-04 16:01 | -36.73893 | 164.77359 | 39348 ft | 509 kts | 100° |
| 2026-05-04 16:02 | -36.74882 | 164.86099 | 39355 ft | 509 kts | 100° |
| 2026-05-04 16:03 | -36.76353 | 164.99228 | 39358 ft | 509 kts | 100° |
| 2026-05-04 16:03 | -36.77325 | 165.07964 | 39364 ft | 509 kts | 100° |
| 2026-05-04 16:04 | -36.78291 | 165.16719 | 39362 ft | 508 kts | 100° |
| 2026-05-04 16:04 | -36.79718 | 165.29753 | 39361 ft | 507 kts | 100° |
| 2026-05-04 16:05 | -36.80663 | 165.38471 | 39359 ft | 507 kts | 100° |
| 2026-05-04 16:06 | -36.82068 | 165.51523 | 39373 ft | 507 kts | 100° |
| 2026-05-04 16:07 | -36.83924 | 165.68995 | 39373 ft | 508 kts | 99° |
| 2026-05-04 16:08 | -36.85758 | 165.86504 | 39384 ft | 508 kts | 99° |
| 2026-05-04 16:09 | -36.88009 | 166.08362 | 39382 ft | 506 kts | 99° |
| 2026-05-04 16:10 | -36.89771 | 166.25741 | 39391 ft | 504 kts | 99° |
| 2026-05-04 16:11 | -36.91500 | 166.43067 | 39391 ft | 500 kts | 98° |
| 2026-05-04 16:12 | -36.94024 | 166.68830 | 39395 ft | 496 kts | 98° |
| 2026-05-04 16:13 | -36.95663 | 166.85885 | 39399 ft | 494 kts | 98° |
| 2026-05-04 16:14 | -36.97277 | 167.02934 | 39401 ft | 494 kts | 97° |
| 2026-05-04 16:16 | -36.99258 | 167.24239 | 39418 ft | 494 kts | 97° |
| 2026-05-04 16:17 | -37.01202 | 167.45567 | 39410 ft | 493 kts | 97° |
| 2026-05-04 16:18 | -37.02728 | 167.62612 | 39429 ft | 491 kts | 97° |
| 2026-05-04 16:19 | -37.04593 | 167.83840 | 39425 ft | 490 kts | 97° |
| 2026-05-04 16:20 | -37.06409 | 168.04946 | 39437 ft | 488 kts | 97° |
| 2026-05-04 16:22 | -37.08190 | 168.26082 | 39441 ft | 487 kts | 97° |
| 2026-05-04 16:23 | -37.10269 | 168.51363 | 39439 ft | 487 kts | 97° |
| 2026-05-04 16:25 | -37.12296 | 168.76679 | 39451 ft | 486 kts | 97° |
| 2026-05-04 16:26 | -37.14586 | 169.06139 | 39453 ft | 485 kts | 97° |
| 2026-05-04 16:28 | -37.16172 | 169.27135 | 39454 ft | 485 kts | 96° |
| 2026-05-04 16:29 | -37.18336 | 169.56610 | 39451 ft | 485 kts | 96° |
| 2026-05-04 16:31 | -37.19838 | 169.77692 | 39458 ft | 485 kts | 96° |
| 2026-05-04 16:32 | -37.21588 | 170.02945 | 39460 ft | 486 kts | 96° |
| 2026-05-04 16:33 | -37.22728 | 170.19837 | 39469 ft | 486 kts | 96° |
| 2026-05-04 16:34 | -37.23569 | 170.32541 | 39463 ft | 486 kts | 96° |
| 2026-05-04 16:35 | -37.25116 | 170.56456 | 39472 ft | 486 kts | 96° |
| 2026-05-04 16:36 | -37.25689 | 170.69168 | 39473 ft | 487 kts | 90° |
| 2026-05-04 16:37 | -37.25294 | 170.81930 | 39468 ft | 487 kts | 89° |
| 2026-05-04 16:38 | -37.24758 | 170.98882 | 39470 ft | 488 kts | 89° |
| 2026-05-04 16:39 | -37.24114 | 171.20193 | 39473 ft | 488 kts | 89° |
| 2026-05-04 16:40 | -37.23570 | 171.37186 | 39478 ft | 489 kts | 88° |
| 2026-05-04 16:41 | -37.22851 | 171.58509 | 39481 ft | 489 kts | 88° |
| 2026-05-04 16:43 | -37.22095 | 171.79835 | 39472 ft | 489 kts | 88° |
| 2026-05-04 16:43 | -37.21624 | 171.92567 | 39480 ft | 489 kts | 87° |
| 2026-05-04 16:44 | -37.20962 | 172.09912 | 36799 ft | 498 kts | 87° |
| 2026-05-04 16:45 | -37.20621 | 172.18591 | 35208 ft | 498 kts | 87° |
| 2026-05-04 16:46 | -37.20102 | 172.31501 | 33205 ft | 486 kts | 87° |
| 2026-05-04 16:46 | -37.19758 | 172.39881 | 32091 ft | 475 kts | 87° |
| 2026-05-04 16:47 | -37.19417 | 172.48079 | 31028 ft | 466 kts | 86° |
| 2026-05-04 16:47 | -37.19074 | 172.56130 | 29858 ft | 458 kts | 85° |
| 2026-05-04 16:48 | -37.18565 | 172.67889 | 28214 ft | 442 kts | 85° |
| 2026-05-04 16:48 | -37.18399 | 172.71676 | 27690 ft | 437 kts | 85° |
| 2026-05-04 16:49 | -37.18063 | 172.79226 | 26653 ft | 429 kts | 85° |
| 2026-05-04 16:49 | -37.17729 | 172.86628 | 25644 ft | 421 kts | 85° |
| 2026-05-04 16:50 | -37.17398 | 172.93866 | 24659 ft | 415 kts | 84° |
| 2026-05-04 16:50 | -37.17065 | 173.01051 | 23594 ft | 410 kts | 84° |
| 2026-05-04 16:51 | -37.16733 | 173.08127 | 22560 ft | 402 kts | 85° |
| 2026-05-04 16:51 | -37.16569 | 173.11605 | 22078 ft | 397 kts | 85° |
| 2026-05-04 16:51 | -37.16241 | 173.18465 | 21113 ft | 390 kts | 84° |
| 2026-05-04 16:52 | -37.15915 | 173.25192 | 20189 ft | 383 kts | 85° |
| 2026-05-04 16:52 | -37.15754 | 173.28509 | 19730 ft | 380 kts | 85° |
| 2026-05-04 16:53 | -37.15431 | 173.35069 | 18816 ft | 375 kts | 84° |
| 2026-05-04 16:53 | -37.14951 | 173.44698 | 17339 ft | 365 kts | 84° |
| 2026-05-04 16:54 | -37.14777 | 173.47858 | 16871 ft | 362 kts | 84° |
| 2026-05-04 16:55 | -37.14028 | 173.60258 | 15085 ft | 351 kts | 84° |
| 2026-05-04 16:55 | -37.13665 | 173.66288 | 14194 ft | 347 kts | 84° |
| 2026-05-04 16:56 | -37.13308 | 173.72172 | 13637 ft | 332 kts | 83° |
| 2026-05-04 16:56 | -37.12783 | 173.80743 | 12408 ft | 325 kts | 83° |
| 2026-05-04 16:57 | -37.12611 | 173.83552 | 12020 ft | 323 kts | 83° |
| 2026-05-04 16:57 | -37.12265 | 173.89126 | 11231 ft | 319 kts | 83° |
| 2026-05-04 16:58 | -37.11764 | 173.97095 | 10705 ft | 293 kts | 83° |
| 2026-05-04 16:58 | -37.11606 | 173.99595 | 10594 ft | 283 kts | 83° |
| 2026-05-04 16:59 | -37.11298 | 174.04421 | 10098 ft | 275 kts | 83° |
| 2026-05-04 17:00 | -37.10694 | 174.13800 | 8750 ft | 271 kts | 83° |
| 2026-05-04 17:00 | -37.10255 | 174.20624 | 6885 ft | 252 kts | 83° |
| 2026-05-04 17:01 | -37.09974 | 174.24946 | 5672 ft | 247 kts | 83° |
| 2026-05-04 17:01 | -37.09692 | 174.29252 | 4491 ft | 249 kts | 83° |
| 2026-05-04 17:02 | -37.09415 | 174.33462 | 3435 ft | 235 kts | 83° |
| 2026-05-04 17:02 | -37.09143 | 174.37520 | 3143 ft | 236 kts | 83° |
| 2026-05-04 17:03 | -37.09009 | 174.39527 | 3096 ft | 225 kts | 83° |
| 2026-05-04 17:03 | -37.08883 | 174.41421 | 3082 ft | 212 kts | 83° |
| 2026-05-04 17:03 | -37.08640 | 174.45022 | 3092 ft | 207 kts | 83° |
| 2026-05-04 17:04 | -37.08395 | 174.48620 | 3110 ft | 210 kts | 83° |
| 2026-05-04 17:04 | -37.08146 | 174.52279 | 3111 ft | 211 kts | 83° |
| 2026-05-04 17:05 | -37.07485 | 174.55797 | 3152 ft | 204 kts | 70° |
| 2026-05-04 17:05 | -37.06617 | 174.58955 | 3041 ft | 178 kts | 69° |
| 2026-05-04 17:06 | -37.05844 | 174.61767 | 2563 ft | 164 kts | 69° |
| 2026-05-04 17:06 | -37.05489 | 174.63058 | 2371 ft | 147 kts | 69° |
| 2026-05-04 17:07 | -37.04872 | 174.65296 | 2034 ft | 133 kts | 70° |
| 2026-05-04 17:07 | -37.04671 | 174.66027 | 1900 ft | 135 kts | 69° |
| 2026-05-04 17:07 | -37.04265 | 174.67496 | 1649 ft | 133 kts | 71° |
| 2026-05-04 17:07 | -37.03962 | 174.68601 | 1460 ft | 134 kts | 71° |
| 2026-05-04 17:08 | -37.03659 | 174.69703 | 1294 ft | 134 kts | 72° |
| 2026-05-04 17:08 | -37.03046 | 174.71931 | 920 ft | 136 kts | 72° |
| 2026-05-04 17:08 | -37.02732 | 174.73070 | 730 ft | 139 kts | 73° |
| 2026-05-04 17:09 | -37.02413 | 174.74228 | 531 ft | 141 kts | 72° |
| 2026-05-04 17:09 | -37.02097 | 174.75372 | 338 ft | 141 kts | 71° |
| 2026-05-04 17:09 | -37.01777 | 174.76538 | 158 ft | 142 kts | 71° |
| 2026-05-04 17:10 | -37.01224 | 174.78553 | 30 ft | 79 kts | 71° |
| 2026-05-04 17:10 | -37.00955 | 174.79083 | 30 ft | 6 kts | 41° |
| 2026-05-04 17:11 | -37.00920 | 174.79118 | 30 ft | 7 kts | 34° |
| 2026-05-04 17:11 | -37.00873 | 174.79125 | 30 ft | 7 kts | 342° |
| 2026-05-04 17:11 | -37.00809 | 174.79032 | 30 ft | 8 kts | 251° |
| 2026-05-04 17:12 | -37.00830 | 174.78961 | 30 ft | 9 kts | 250° |
| 2026-05-04 17:12 | -37.00805 | 174.78849 | 30 ft | 2 kts | 336° |
| 2026-05-04 17:13 | -37.00760 | 174.78891 | 30 ft | 5 kts | 69° |
| 2026-05-04 17:14 | -37.00760 | 174.78892 | 30 ft | 0 kts | 69° |
| 2026-05-04 17:16 | -37.00756 | 174.78903 | 30 ft | 0 kts | 71° |